createdAt,value
2022-12-31T00:00:00.730Z,99963.55
2022-12-31T00:05:10.346Z,99961.80
2022-12-31T00:10:17.324Z,99961.25
2022-12-31T00:15:24.887Z,99956.08
2022-12-31T00:20:31.968Z,99953.13
2022-12-31T00:25:39.151Z,99945.38
2022-12-31T00:30:46.091Z,99944.42
2022-12-31T00:35:53.023Z,99936.09
2022-12-31T00:40:59.935Z,99940.69
2022-12-31T00:46:08.409Z,99939.19
2022-12-31T00:51:17.817Z,99951.16
2022-12-31T00:56:27.095Z,99958.11
2022-12-31T01:01:36.384Z,99966.45
2022-12-31T01:06:44.367Z,99968.71
2022-12-31T01:11:53.104Z,99975.55
2022-12-31T01:17:00.568Z,99968.77
2022-12-31T01:22:07.486Z,99963.16
2022-12-31T01:27:14.338Z,99960.23
2022-12-31T01:32:21.186Z,99950.30
2022-12-31T01:37:29.016Z,99954.20
2022-12-31T01:42:35.987Z,99948.19
2022-12-31T01:47:47.729Z,99966.27
2022-12-31T01:52:58.104Z,99962.86
2022-12-31T01:58:09.571Z,99983.20
2022-12-31T02:03:17.276Z,99995.55
2022-12-31T02:08:24.328Z,99999.91
2022-12-31T02:13:31.435Z,99997.23
2022-12-31T02:18:45.053Z,99999.33
2022-12-31T02:24:19.501Z,100008.00
2022-12-31T02:30:00.142Z,100002.62
2022-12-31T02:35:13.465Z,99993.27
2022-12-31T02:40:23.273Z,99998.27
2022-12-31T02:45:39.074Z,99989.45
2022-12-31T02:50:59.429Z,100006.48
2022-12-31T02:56:13.149Z,100018.53
2022-12-31T03:01:50.403Z,100005.98
2022-12-31T03:06:57.640Z,99994.61
2022-12-31T03:12:24.292Z,100002.25
2022-12-31T03:17:31.218Z,100008.87
2022-12-31T03:22:41.701Z,100013.98
2022-12-31T03:27:48.846Z,100026.52
2022-12-31T03:32:57.614Z,100022.08
2022-12-31T03:38:05.211Z,100020.35
2022-12-31T03:43:12.744Z,100033.67
2022-12-31T03:48:20.006Z,100042.52
2022-12-31T03:53:27.509Z,100054.83
2022-12-31T03:58:34.559Z,100042.58
2022-12-31T04:03:41.515Z,100040.42
2022-12-31T04:08:48.471Z,100034.98
2022-12-31T04:13:55.252Z,100038.47
2022-12-31T04:19:02.121Z,100029.50
2022-12-31T04:24:10.252Z,100024.83
2022-12-31T04:29:17.112Z,100013.81
2022-12-31T04:34:24.069Z,100009.59
2022-12-31T04:39:31.271Z,100001.13
2022-12-31T04:44:38.101Z,100010.77
2022-12-31T04:49:44.959Z,100019.48
2022-12-31T04:54:52.035Z,100029.34
2022-12-31T04:59:59.723Z,100027.02
2022-12-31T05:05:07.387Z,100021.67
2022-12-31T05:10:16.002Z,100016.15
2022-12-31T05:15:22.943Z,100017.80
2022-12-31T05:20:30.048Z,100009.94
2022-12-31T05:25:37.067Z,100019.28
2022-12-31T05:30:45.052Z,100021.36
2022-12-31T05:35:52.330Z,100024.23
2022-12-31T05:41:07.024Z,100028.52
2022-12-31T05:46:13.994Z,100034.69
2022-12-31T05:51:20.902Z,100031.48
2022-12-31T05:56:27.778Z,100020.19
2022-12-31T06:01:34.761Z,100031.30
2022-12-31T06:06:41.755Z,100036.48
2022-12-31T06:11:48.939Z,100028.65
2022-12-31T06:16:55.875Z,100022.17
2022-12-31T06:22:03.225Z,100031.64
2022-12-31T06:27:11.024Z,100037.59
2022-12-31T06:32:18.572Z,100046.27
2022-12-31T06:37:25.478Z,100053.55
2022-12-31T06:42:32.741Z,100060.84
2022-12-31T06:47:39.711Z,100063.17
2022-12-31T06:52:46.576Z,100056.53
2022-12-31T06:57:54.469Z,100051.81
2022-12-31T07:03:26.831Z,100044.50
2022-12-31T07:08:43.753Z,100056.05
2022-12-31T07:13:59.987Z,100064.73
2022-12-31T07:19:16.479Z,100082.39
2022-12-31T07:24:25.544Z,100077.02
2022-12-31T07:29:49.527Z,100073.53
2022-12-31T07:35:04.739Z,100076.92
2022-12-31T07:40:19.655Z,100074.69
2022-12-31T07:45:34.777Z,100074.13
2022-12-31T07:50:42.611Z,100078.02
2022-12-31T07:55:53.473Z,100076.82
2022-12-31T08:01:01.157Z,100074.95
2022-12-31T08:06:17.913Z,100076.88
2022-12-31T08:11:36.249Z,100096.64
2022-12-31T08:16:44.475Z,100086.89
2022-12-31T08:22:05.765Z,100092.11
2022-12-31T08:27:21.807Z,100096.13
2022-12-31T08:32:35.209Z,100095.52
2022-12-31T08:37:45.717Z,100088.36
2022-12-31T08:43:08.460Z,100090.35
2022-12-31T08:48:26.611Z,100091.02
2022-12-31T08:53:35.053Z,100079.27
2022-12-31T08:58:52.572Z,100078.26
2022-12-31T09:04:12.568Z,100081.14
2022-12-31T09:09:28.355Z,100070.52
2022-12-31T09:14:48.288Z,100058.08
2022-12-31T09:19:56.405Z,100058.77
2022-12-31T09:25:03.937Z,100073.33
2022-12-31T09:30:22.745Z,100073.48
2022-12-31T09:35:35.951Z,100082.36
2022-12-31T09:41:12.631Z,100073.73
2022-12-31T09:47:07.551Z,100070.51
2022-12-31T09:52:34.882Z,100070.19
2022-12-31T09:57:54.939Z,100068.66
2022-12-31T10:03:23.082Z,100063.85
2022-12-31T10:08:48.023Z,100072.84
2022-12-31T10:14:10.511Z,100072.17
2022-12-31T10:19:41.296Z,100060.41
2022-12-31T10:25:37.678Z,100048.48
2022-12-31T10:31:05.610Z,100036.46
2022-12-31T10:36:21.690Z,100030.88
2022-12-31T10:41:54.659Z,100030.90
2022-12-31T10:47:33.056Z,100031.66
2022-12-31T10:53:18.337Z,100021.06
2022-12-31T10:58:55.090Z,100023.71
2022-12-31T11:04:31.557Z,100022.66
2022-12-31T11:10:17.235Z,100029.75
2022-12-31T11:15:53.401Z,100027.91
2022-12-31T11:21:16.317Z,100027.39
2022-12-31T11:26:41.057Z,100015.27
2022-12-31T11:32:07.688Z,100008.05
2022-12-31T11:37:30.151Z,100001.93
2022-12-31T11:42:47.808Z,99997.05
2022-12-31T11:48:29.752Z,99995.77
2022-12-31T11:53:57.548Z,99995.61
2022-12-31T11:59:18.894Z,99987.30
2022-12-31T12:04:26.392Z,99984.59
2022-12-31T12:09:35.616Z,99987.89
2022-12-31T12:14:45.439Z,99980.58
2022-12-31T12:19:58.445Z,99980.75
2022-12-31T12:25:17.035Z,99989.85
2022-12-31T12:30:26.919Z,99995.98
2022-12-31T12:35:36.228Z,100002.38
2022-12-31T12:40:53.316Z,100002.57
2022-12-31T12:46:07.647Z,100008.09
2022-12-31T12:51:26.869Z,100005.41
2022-12-31T12:56:43.279Z,100011.91
2022-12-31T13:01:57.622Z,100003.45
2022-12-31T13:07:15.561Z,100010.89
2022-12-31T13:12:37.839Z,100005.61
2022-12-31T13:18:05.148Z,100014.17
2022-12-31T13:23:20.767Z,100018.70
2022-12-31T13:28:29.026Z,100030.73
2022-12-31T13:33:38.843Z,100025.04
2022-12-31T13:38:50.103Z,100032.63
2022-12-31T13:44:04.392Z,100038.61
2022-12-31T13:49:20.948Z,100038.98
2022-12-31T13:54:39.922Z,100045.98
2022-12-31T13:59:52.843Z,100045.89
2022-12-31T14:05:06.079Z,100042.21
2022-12-31T14:10:17.421Z,100037.91
2022-12-31T14:15:30.116Z,100047.02
2022-12-31T14:20:48.043Z,100035.64
2022-12-31T14:26:00.873Z,100032.45
2022-12-31T14:31:21.216Z,100040.92
2022-12-31T14:36:41.865Z,100043.82
2022-12-31T14:41:59.164Z,100047.52
2022-12-31T14:47:23.028Z,100048.39
2022-12-31T14:52:33.011Z,100048.21
2022-12-31T14:58:17.249Z,100048.14
2022-12-31T15:03:26.838Z,100046.53
2022-12-31T15:08:50.422Z,100057.18
2022-12-31T15:14:21.117Z,100054.84
2022-12-31T15:25:36.972Z,100061.25
2022-12-31T15:30:49.662Z,100058.58
2022-12-31T15:35:58.775Z,100057.11
2022-12-31T15:41:16.965Z,100069.75
2022-12-31T15:46:27.465Z,100079.30
2022-12-31T15:51:39.937Z,100093.88
2022-12-31T15:56:49.476Z,100096.03
2022-12-31T16:01:58.129Z,100102.56
2022-12-31T16:07:05.833Z,100109.23
2022-12-31T16:12:20.335Z,100119.45
2022-12-31T16:17:31.668Z,100113.41
2022-12-31T16:22:40.967Z,100120.36
2022-12-31T16:27:49.547Z,100130.16
2022-12-31T16:33:00.195Z,100130.27
2022-12-31T16:38:15.400Z,100135.55
2022-12-31T16:43:37.821Z,100132.58
2022-12-31T16:48:48.436Z,100138.84
2022-12-31T16:53:55.633Z,100142.11
2022-12-31T16:59:05.870Z,100147.73
2022-12-31T17:04:18.494Z,100147.50
2022-12-31T17:09:38.136Z,100142.30
2022-12-31T17:14:52.623Z,100149.25
2022-12-31T17:20:02.216Z,100154.19
2022-12-31T17:25:32.431Z,100158.02
2022-12-31T17:30:44.529Z,100157.43
2022-12-31T17:36:16.539Z,100167.42
2022-12-31T17:41:31.208Z,100166.33
2022-12-31T17:46:44.021Z,100162.69
2022-12-31T17:51:50.943Z,100172.48
2022-12-31T17:56:59.307Z,100171.02
2022-12-31T18:02:14.054Z,100173.89
2022-12-31T18:07:21.567Z,100182.81
2022-12-31T18:12:28.877Z,100191.94
2022-12-31T18:17:36.248Z,100197.79
2022-12-31T18:28:17.574Z,100203.68
2022-12-31T18:33:32.316Z,100202.75
2022-12-31T18:38:40.613Z,100197.90
2022-12-31T18:43:48.521Z,100205.79
2022-12-31T18:48:55.445Z,100196.15
2022-12-31T18:54:03.176Z,100193.20
2022-12-31T18:59:10.767Z,100189.29
2022-12-31T19:04:27.103Z,100191.20
2022-12-31T19:09:56.301Z,100188.14
2022-12-31T19:15:02.699Z,100190.31
2022-12-31T19:20:10.829Z,100198.30
2022-12-31T19:25:22.062Z,100192.39
2022-12-31T19:30:32.315Z,100193.39
2022-12-31T19:35:44.233Z,100198.21
2022-12-31T19:40:57.237Z,100202.07
2022-12-31T19:46:16.640Z,100200.92
2022-12-31T19:51:24.562Z,100199.85
2022-12-31T19:56:31.710Z,100208.64
2022-12-31T20:01:39.580Z,100214.03
2022-12-31T20:06:46.817Z,100211.89
2022-12-31T20:11:54.070Z,100211.39
2022-12-31T20:17:01.090Z,100212.77
2022-12-31T20:22:08.829Z,100212.69
2022-12-31T20:27:18.568Z,100211.92
2022-12-31T20:32:25.917Z,100213.79
2022-12-31T20:37:32.966Z,100222.17
2022-12-31T20:42:40.861Z,100222.05
2022-12-31T20:47:48.515Z,100222.98
2022-12-31T20:52:56.741Z,100218.05
2022-12-31T20:58:06.331Z,100214.71
2022-12-31T21:03:36.841Z,100212.01
2022-12-31T21:08:43.310Z,100197.45
2022-12-31T21:13:57.535Z,100202.05
2022-12-31T21:19:10.147Z,100202.20
2022-12-31T21:24:23.771Z,100205.07
2022-12-31T21:29:34.950Z,100194.30
2022-12-31T21:34:43.884Z,100196.16
2022-12-31T21:39:50.904Z,100197.67
2022-12-31T21:45:06.377Z,100200.96
2022-12-31T21:50:16.339Z,100201.42
2022-12-31T21:55:44.519Z,100218.91
2022-12-31T22:01:28.348Z,100214.91
2022-12-31T22:06:39.845Z,100217.71
2022-12-31T22:11:46.704Z,100225.55
2022-12-31T22:16:53.678Z,100223.86
2022-12-31T22:22:00.569Z,100218.92
2022-12-31T22:27:28.816Z,100215.39
2022-12-31T22:32:34.697Z,100222.86
2022-12-31T22:38:01.595Z,100223.76
2022-12-31T22:43:08.757Z,100221.19
2022-12-31T22:48:15.665Z,100224.83
2022-12-31T22:53:22.684Z,100225.36
2022-12-31T22:58:29.637Z,100228.63
2022-12-31T23:03:38.272Z,100220.36
2022-12-31T23:09:05.869Z,100227.08
2022-12-31T23:14:35.853Z,100234.50
2022-12-31T23:20:01.476Z,100232.52
2022-12-31T23:25:09.490Z,100231.61
2022-12-31T23:30:16.835Z,100220.86
2022-12-31T23:35:23.917Z,100214.83
2022-12-31T23:40:35.395Z,100207.67
2022-12-31T23:45:45.121Z,100200.34
2022-12-31T23:50:54.137Z,100209.56
2022-12-31T23:56:13.889Z,100212.23
